Time;durP1;ratioP1;P1;durP2;ratioP2;P2;SDS_P1;SDS_P2;PMS_P1;PMS_P2;Temp;Humidity;BMP_temperature;BMP_pressure;BME280_temperature;BME280_humidity;BME280_pressure;Samples;Min_cycle;Max_cycle;Signal;HPM_P1;HPM_P2
2023/04/22 00:01:23;0.00;0.00;0.62;0.00;0.00;0.62;4.60;4.20;;;27.00;20.40;;;;;;2272277;60;20410;-70
2023/04/22 00:04:09;0.00;0.00;0.62;0.00;0.00;0.62;4.47;4.07;;;27.00;20.40;;;;;;2272230;60;20390;-66
2023/04/22 00:06:55;0.00;0.00;0.62;0.00;0.00;0.62;4.03;3.63;;;27.00;20.50;;;;;;2269349;61;20398;-64
2023/04/22 00:09:41;0.00;0.00;0.62;0.00;0.00;0.62;4.97;4.50;;;27.00;20.50;;;;;;2273849;61;20865;-64
2023/04/22 00:12:26;0.00;0.00;0.62;0.00;0.00;0.62;5.20;4.60;;;27.00;20.50;;;;;;2274241;60;20378;-64
2023/04/22 00:15:11;0.00;0.00;0.62;0.00;0.00;0.62;5.00;4.50;;;27.00;20.50;;;;;;2274530;60;20358;-64
2023/04/22 00:17:57;0.00;0.00;0.62;0.00;0.00;0.62;4.87;4.47;;;27.00;20.50;;;;;;2274695;61;20358;-63
2023/04/22 00:20:44;0.00;0.00;0.62;0.00;0.00;0.62;4.40;4.00;;;27.00;20.50;;;;;;2270409;60;20358;-64
2023/04/22 00:23:29;0.00;0.00;0.62;0.00;0.00;0.62;4.80;4.20;;;27.00;20.50;;;;;;2274600;60;20429;-63
2023/04/22 00:26:14;0.00;0.00;0.62;0.00;0.00;0.62;5.43;5.00;;;27.00;20.50;;;;;;2275353;61;20361;-64
2023/04/22 00:28:58;0.00;0.00;0.62;0.00;0.00;0.62;4.27;3.93;;;27.00;20.50;;;;;;2274214;60;20386;-62
2023/04/22 00:31:43;0.00;0.00;0.62;0.00;0.00;0.62;5.03;4.63;;;27.00;20.50;;;;;;2269951;61;20411;-67
2023/04/22 00:34:28;0.00;0.00;0.62;0.00;0.00;0.62;4.60;4.20;;;27.00;20.50;;;;;;2270148;61;20401;-66
2023/04/22 00:37:15;0.00;0.00;0.62;0.00;0.00;0.62;5.30;4.80;;;26.90;20.50;;;;;;2273954;60;20477;-67
2023/04/22 00:39:59;0.00;0.00;0.62;0.00;0.00;0.62;4.57;4.17;;;27.00;20.50;;;;;;2269846;61;20439;-64
2023/04/22 00:42:45;0.00;0.00;0.62;0.00;0.00;0.62;7.10;4.70;;;27.00;20.50;;;;;;2267370;61;20362;-65
2023/04/22 00:45:30;0.00;0.00;0.62;0.00;0.00;0.62;5.40;4.90;;;27.00;20.50;;;;;;2273520;60;20366;-64
2023/04/22 00:48:15;0.00;0.00;0.62;0.00;0.00;0.62;5.70;5.07;;;26.90;20.40;;;;;;2270332;61;20407;-64
2023/04/22 00:51:00;0.00;0.00;0.62;0.00;0.00;0.62;5.30;4.80;;;26.90;20.30;;;;;;2273421;60;20412;-64
2023/04/22 00:53:46;0.00;0.00;0.62;0.00;0.00;0.62;5.20;4.70;;;26.90;20.30;;;;;;2273431;60;20356;-64
2023/04/22 00:56:34;0.00;0.00;0.62;0.00;0.00;0.62;5.70;5.20;;;26.80;20.20;;;;;;2270174;61;20351;-67
2023/04/22 00:59:20;0.00;0.00;0.62;0.00;0.00;0.62;6.30;5.70;;;26.80;20.10;;;;;;2269653;61;20420;-65
2023/04/22 01:02:05;0.00;0.00;0.62;0.00;0.00;0.62;6.20;5.60;;;26.80;20.10;;;;;;2273494;60;20463;-64
2023/04/22 01:04:52;0.00;0.00;0.62;0.00;0.00;0.62;6.80;6.20;;;26.80;20.00;;;;;;2269671;61;20452;-64
2023/04/22 01:07:37;0.00;0.00;0.62;0.00;0.00;0.62;7.10;6.43;;;26.70;19.90;;;;;;2269725;61;20451;-63
2023/04/22 01:10:23;0.00;0.00;0.62;0.00;0.00;0.62;6.63;6.03;;;26.70;19.90;;;;;;2272855;60;20386;-64
2023/04/22 01:13:09;0.00;0.00;0.62;0.00;0.00;0.62;6.20;5.63;;;26.60;19.80;;;;;;2269721;61;20362;-65
2023/04/22 01:15:54;0.00;0.00;0.62;0.00;0.00;0.62;6.77;6.17;;;26.60;19.80;;;;;;2273247;61;20392;-64
2023/04/22 01:18:39;0.00;0.00;0.62;0.00;0.00;0.62;6.70;6.10;;;26.60;19.80;;;;;;2273170;60;20374;-65
2023/04/22 01:21:25;0.00;0.00;0.62;0.00;0.00;0.62;6.67;6.13;;;26.50;19.80;;;;;;2273212;60;20408;-64
2023/04/22 01:24:11;0.00;0.00;0.62;0.00;0.00;0.62;7.03;6.33;;;26.50;19.80;;;;;;2273069;60;20937;-63
2023/04/22 01:26:57;0.00;0.00;0.62;0.00;0.00;0.62;7.57;6.97;;;26.40;19.70;;;;;;2269436;60;20370;-64
2023/04/22 01:29:42;0.00;0.00;0.62;0.00;0.00;0.62;7.73;7.13;;;26.30;19.70;;;;;;2269335;61;20393;-64
2023/04/22 01:32:29;0.00;0.00;0.62;0.00;0.00;0.62;7.33;6.63;;;26.30;19.70;;;;;;2269642;61;20361;-66
2023/04/22 01:35:14;0.00;0.00;0.62;0.00;0.00;0.62;6.90;6.30;;;26.30;19.70;;;;;;2272647;60;20427;-64
2023/04/22 01:37:58;0.00;0.00;0.62;0.00;0.00;0.62;6.93;6.33;;;26.20;19.70;;;;;;2269768;60;20366;-64
2023/04/22 01:40:44;0.00;0.00;0.62;0.00;0.00;0.62;6.30;5.70;;;26.20;19.80;;;;;;2269222;61;20358;-63
2023/04/22 01:43:30;0.00;0.00;0.62;0.00;0.00;0.62;6.70;6.10;;;26.10;19.80;;;;;;2272777;61;20463;-65
2023/04/22 01:46:16;0.00;0.00;0.62;0.00;0.00;0.62;6.70;6.00;;;26.10;19.80;;;;;;2272797;60;20408;-64
2023/04/22 01:49:02;0.00;0.00;0.62;0.00;0.00;0.62;7.10;6.50;;;26.10;19.90;;;;;;2269175;61;20386;-64
2023/04/22 01:51:47;0.00;0.00;0.62;0.00;0.00;0.62;6.90;6.00;;;26.00;19.80;;;;;;2272713;61;20445;-65
2023/04/22 01:54:32;0.00;0.00;0.62;0.00;0.00;0.62;7.20;6.13;;;26.00;19.90;;;;;;2273060;60;20354;-65
2023/04/22 01:57:18;0.00;0.00;0.62;0.00;0.00;0.62;7.77;7.07;;;26.00;19.80;;;;;;2269602;61;20392;-62
2023/04/22 02:00:06;0.00;0.00;0.62;0.00;0.00;0.62;6.60;6.10;;;26.00;19.80;;;;;;2268423;60;20386;-65
2023/04/22 02:02:57;0.00;0.00;0.62;0.00;0.00;0.62;7.57;6.80;;;25.90;19.80;;;;;;2272715;60;20956;-65
2023/04/22 02:05:42;0.00;0.00;0.62;0.00;0.00;0.62;6.53;5.93;;;25.90;19.90;;;;;;2269376;61;20382;-65
2023/04/22 02:08:27;0.00;0.00;0.62;0.00;0.00;0.62;6.40;5.90;;;25.90;19.90;;;;;;2269568;60;20478;-64
2023/04/22 02:11:12;0.00;0.00;0.62;0.00;0.00;0.62;7.10;6.40;;;25.90;19.90;;;;;;2269267;60;20369;-63
2023/04/22 02:13:58;0.00;0.00;0.62;0.00;0.00;0.62;6.87;6.27;;;25.80;19.80;;;;;;2269181;61;20959;-65
2023/04/22 02:16:43;0.00;0.00;0.62;0.00;0.00;0.62;7.60;6.90;;;25.80;19.80;;;;;;2269743;61;20388;-64
2023/04/22 02:19:28;0.00;0.00;0.62;0.00;0.00;0.62;6.50;5.97;;;25.80;19.80;;;;;;2269245;60;20422;-65
2023/04/22 02:22:12;0.00;0.00;0.62;0.00;0.00;0.62;7.07;6.47;;;25.80;19.80;;;;;;2269532;61;20887;-64
2023/04/22 02:24:57;0.00;0.00;0.62;0.00;0.00;0.62;7.40;6.60;;;25.70;19.80;;;;;;2272636;60;20971;-65
2023/04/22 02:27:42;0.00;0.00;0.62;0.00;0.00;0.62;7.20;6.60;;;25.70;19.70;;;;;;2272933;60;20370;-65
2023/04/22 02:30:28;0.00;0.00;0.62;0.00;0.00;0.62;6.70;6.00;;;25.70;19.80;;;;;;2269141;61;20473;-63
2023/04/22 02:33:13;0.00;0.00;0.62;0.00;0.00;0.62;7.73;7.03;;;25.60;19.80;;;;;;2272302;60;20399;-63
2023/04/22 02:35:58;0.00;0.00;0.62;0.00;0.00;0.62;7.00;6.40;;;25.60;19.80;;;;;;2272762;60;20410;-64
2023/04/22 02:38:42;0.00;0.00;0.62;0.00;0.00;0.62;7.80;7.10;;;25.50;19.80;;;;;;2272928;60;20386;-65
2023/04/22 02:41:27;0.00;0.00;0.62;0.00;0.00;0.62;8.30;7.50;;;25.50;19.80;;;;;;2272571;60;20431;-64
2023/04/22 02:44:12;0.00;0.00;0.62;0.00;0.00;0.62;7.30;6.70;;;25.40;19.70;;;;;;2269106;60;20887;-64
2023/04/22 02:46:58;0.00;0.00;0.62;0.00;0.00;0.62;8.23;7.33;;;25.40;19.70;;;;;;2269261;61;20366;-65
2023/04/22 02:49:43;0.00;0.00;0.62;0.00;0.00;0.62;9.20;6.47;;;25.40;19.70;;;;;;2269002;61;20424;-65
2023/04/22 02:52:28;0.00;0.00;0.62;0.00;0.00;0.62;7.97;7.30;;;25.40;19.80;;;;;;2272533;60;20362;-64
2023/04/22 02:55:13;0.00;0.00;0.62;0.00;0.00;0.62;6.63;6.03;;;25.30;19.80;;;;;;2269336;61;20766;-64
2023/04/22 02:57:58;0.00;0.00;0.62;0.00;0.00;0.62;8.23;7.40;;;25.30;19.80;;;;;;2269328;61;20380;-65
2023/04/22 03:00:42;0.00;0.00;0.62;0.00;0.00;0.62;8.80;7.13;;;25.20;19.70;;;;;;2269138;60;20412;-64
2023/04/22 03:03:30;0.00;0.00;0.62;0.00;0.00;0.62;7.60;6.90;;;25.20;19.80;;;;;;2269128;61;20534;-65
2023/04/22 03:06:15;0.00;0.00;0.62;0.00;0.00;0.62;8.27;7.17;;;25.20;19.80;;;;;;2269261;61;20775;-64
2023/04/22 03:09:00;0.00;0.00;0.62;0.00;0.00;0.62;8.03;7.10;;;25.10;19.80;;;;;;2266126;60;20408;-66
2023/04/22 03:11:45;0.00;0.00;0.62;0.00;0.00;0.62;8.43;7.70;;;25.10;19.90;;;;;;2269366;61;20369;-65
2023/04/22 03:14:29;0.00;0.00;0.62;0.00;0.00;0.62;7.80;7.10;;;25.00;19.80;;;;;;2272451;60;20362;-65
2023/04/22 03:17:14;0.00;0.00;0.62;0.00;0.00;0.62;7.43;6.43;;;25.00;19.80;;;;;;2269468;60;20357;-64
2023/04/22 03:20:00;0.00;0.00;0.62;0.00;0.00;0.62;7.30;6.60;;;25.00;19.90;;;;;;2269131;61;20386;-64
2023/04/22 03:22:45;0.00;0.00;0.62;0.00;0.00;0.62;7.90;7.20;;;24.90;19.90;;;;;;2269565;61;20472;-65
2023/04/22 03:25:31;0.00;0.00;0.62;0.00;0.00;0.62;7.53;6.83;;;24.90;19.90;;;;;;2268757;60;20940;-66
2023/04/22 03:28:16;0.00;0.00;0.62;0.00;0.00;0.62;9.10;7.47;;;24.80;19.80;;;;;;2269376;61;20378;-65
2023/04/22 03:31:01;0.00;0.00;0.62;0.00;0.00;0.62;8.13;7.33;;;24.80;19.90;;;;;;2272287;60;20922;-64
2023/04/22 03:33:47;0.00;0.00;0.62;0.00;0.00;0.62;6.97;6.37;;;24.80;20.00;;;;;;2269105;61;20777;-64
2023/04/22 03:36:42;0.00;0.00;0.62;0.00;0.00;0.62;9.30;6.97;;;24.70;20.50;;;;;;2269276;60;20945;-64
2023/04/22 03:39:27;0.00;0.00;0.62;0.00;0.00;0.62;7.07;6.37;;;24.70;20.00;;;;;;2268852;61;20425;-65
2023/04/22 03:42:14;0.00;0.00;0.62;0.00;0.00;0.62;7.07;6.47;;;24.60;19.90;;;;;;2272921;60;20823;-64
2023/04/22 03:45:01;0.00;0.00;0.62;0.00;0.00;0.62;8.30;7.40;;;24.60;20.00;;;;;;2269184;61;20382;-64
2023/04/22 03:47:49;0.00;0.00;0.62;0.00;0.00;0.62;8.17;7.40;;;24.60;20.00;;;;;;2266353;61;20416;-65
2023/04/22 03:50:40;0.00;0.00;0.62;0.00;0.00;0.62;9.10;7.40;;;24.60;20.00;;;;;;2268769;60;20389;-65
2023/04/22 03:53:28;0.00;0.00;0.62;0.00;0.00;0.62;7.33;6.73;;;24.50;20.00;;;;;;2268823;61;20557;-65
2023/04/22 03:56:12;0.00;0.00;0.62;0.00;0.00;0.62;7.27;6.63;;;24.40;20.00;;;;;;2269122;61;20366;-62
2023/04/22 03:59:02;0.00;0.00;0.62;0.00;0.00;0.62;9.07;7.87;;;24.40;20.10;;;;;;2268677;60;20385;-65
2023/04/22 04:01:49;0.00;0.00;0.62;0.00;0.00;0.62;8.93;8.00;;;24.40;20.70;;;;;;2272441;60;20762;-65
2023/04/22 04:04:37;0.00;0.00;0.62;0.00;0.00;0.62;7.07;6.43;;;24.30;20.10;;;;;;2269002;61;20934;-61
2023/04/22 04:07:23;0.00;0.00;0.62;0.00;0.00;0.62;8.43;7.67;;;24.30;20.10;;;;;;2272576;60;20416;-63
2023/04/22 04:10:11;0.00;0.00;0.62;0.00;0.00;0.62;8.40;7.60;;;24.20;20.10;;;;;;2268751;61;20397;-63
2023/04/22 04:12:56;0.00;0.00;0.62;0.00;0.00;0.62;8.90;7.83;;;24.20;20.10;;;;;;2269484;61;20358;-64
2023/04/22 04:15:42;0.00;0.00;0.62;0.00;0.00;0.62;7.83;7.13;;;24.10;20.20;;;;;;2268802;60;20450;-62
2023/04/22 04:18:28;0.00;0.00;0.62;0.00;0.00;0.62;7.83;7.13;;;24.10;20.20;;;;;;2286631;39;20460;-65
2023/04/22 04:21:13;0.00;0.00;0.62;0.00;0.00;0.62;7.77;6.97;;;24.00;20.20;;;;;;2265015;61;20451;-65
2023/04/22 04:24:05;0.00;0.00;0.62;0.00;0.00;0.62;8.50;7.70;;;24.00;20.30;;;;;;2264529;61;20942;-62
2023/04/22 04:26:56;0.00;0.00;0.62;0.00;0.00;0.62;8.03;7.23;;;23.90;20.30;;;;;;2264687;61;20370;-63
2023/04/22 04:29:48;0.00;0.00;0.62;0.00;0.00;0.62;7.43;6.70;;;23.90;20.40;;;;;;2264781;61;20964;-63
2023/04/22 04:32:41;0.00;0.00;0.62;0.00;0.00;0.62;7.40;6.70;;;23.90;20.50;;;;;;2265139;61;20445;-65
2023/04/22 04:35:28;0.00;0.00;0.62;0.00;0.00;0.62;8.00;7.23;;;23.90;20.50;;;;;;2264901;61;20938;-65
2023/04/22 04:38:15;0.00;0.00;0.62;0.00;0.00;0.62;7.13;6.43;;;23.80;20.50;;;;;;2264908;61;20890;-64
2023/04/22 04:41:01;0.00;0.00;0.62;0.00;0.00;0.62;7.77;7.07;;;23.80;20.50;;;;;;2264841;61;20355;-63
2023/04/22 04:43:49;0.00;0.00;0.62;0.00;0.00;0.62;6.77;6.17;;;23.80;20.50;;;;;;2268055;61;21053;-63
2023/04/22 04:46:45;0.00;0.00;0.62;0.00;0.00;0.62;6.73;6.13;;;23.80;20.60;;;;;;2264597;61;20367;-64
2023/04/22 04:49:30;0.00;0.00;0.62;0.00;0.00;0.62;7.30;6.60;;;23.80;20.70;;;;;;2264683;61;20425;-64
2023/04/22 04:52:17;0.00;0.00;0.62;0.00;0.00;0.62;6.70;6.10;;;23.80;20.80;;;;;;2264967;61;21010;-63
2023/04/22 04:55:01;0.00;0.00;0.62;0.00;0.00;0.62;7.50;6.80;;;23.80;20.80;;;;;;2268297;61;20918;-64
2023/04/22 04:57:48;0.00;0.00;0.62;0.00;0.00;0.62;7.17;6.47;;;23.80;20.80;;;;;;2264512;61;20932;-64
2023/04/22 05:00:34;0.00;0.00;0.62;0.00;0.00;0.62;8.00;7.20;;;23.80;20.70;;;;;;2264407;61;20875;-66
2023/04/22 05:03:19;0.00;0.00;0.62;0.00;0.00;0.62;7.53;6.83;;;23.80;20.80;;;;;;2268228;61;20809;-61
2023/04/22 05:06:05;0.00;0.00;0.62;0.00;0.00;0.62;7.80;6.50;;;23.80;20.80;;;;;;2264937;61;20530;-57
2023/04/22 05:08:51;0.00;0.00;0.62;0.00;0.00;0.62;7.40;6.70;;;23.80;20.90;;;;;;2264508;61;20386;-61
2023/04/22 05:11:37;0.00;0.00;0.62;0.00;0.00;0.62;7.33;6.63;;;23.70;20.80;;;;;;2265266;61;20761;-60
2023/04/22 05:14:30;0.00;0.00;0.62;0.00;0.00;0.62;7.90;7.10;;;23.70;20.80;;;;;;2265464;61;20955;-64
2023/04/22 05:17:17;0.00;0.00;0.62;0.00;0.00;0.62;7.30;6.60;;;23.70;20.80;;;;;;2266175;61;20371;-63
2023/04/22 05:20:02;0.00;0.00;0.62;0.00;0.00;0.62;7.60;6.87;;;23.70;20.90;;;;;;2265454;61;20501;-66
2023/04/22 05:22:48;0.00;0.00;0.62;0.00;0.00;0.62;8.30;7.50;;;23.60;20.80;;;;;;2266064;61;20366;-62
2023/04/22 05:25:33;0.00;0.00;0.62;0.00;0.00;0.62;7.47;6.77;;;23.60;20.90;;;;;;2265956;61;20363;-60
2023/04/22 05:28:24;0.00;0.00;0.62;0.00;0.00;0.62;7.00;6.30;;;23.60;20.90;;;;;;2266453;61;20467;-64
2023/04/22 05:31:12;0.00;0.00;0.62;0.00;0.00;0.62;7.60;6.90;;;23.60;21.00;;;;;;2265119;61;20360;-64
2023/04/22 05:33:58;0.00;0.00;0.62;0.00;0.00;0.62;7.20;6.50;;;23.50;21.00;;;;;;2265399;61;20413;-61
2023/04/22 05:36:44;0.00;0.00;0.62;0.00;0.00;0.62;8.70;7.00;;;23.50;21.10;;;;;;2265671;61;20367;-61
2023/04/22 05:39:28;0.00;0.00;0.62;0.00;0.00;0.62;8.57;7.40;;;23.50;21.20;;;;;;2268263;61;20383;-62
2023/04/22 05:42:14;0.00;0.00;0.62;0.00;0.00;0.62;6.60;6.00;;;23.40;21.20;;;;;;2265861;61;20782;-59
2023/04/22 05:45:00;0.00;0.00;0.62;0.00;0.00;0.62;7.23;6.53;;;23.40;21.20;;;;;;2265378;61;20387;-58
2023/04/22 05:47:46;0.00;0.00;0.62;0.00;0.00;0.62;7.30;6.40;;;23.40;21.20;;;;;;2265685;61;20366;-58
2023/04/22 05:50:32;0.00;0.00;0.62;0.00;0.00;0.62;6.77;6.17;;;23.40;21.20;;;;;;2265472;61;20836;-57
2023/04/22 05:53:23;0.00;0.00;0.62;0.00;0.00;0.62;6.80;6.03;;;23.30;21.10;;;;;;2265101;61;20378;-65
2023/04/22 05:56:08;0.00;0.00;0.62;0.00;0.00;0.62;6.80;6.00;;;23.40;21.20;;;;;;2269250;61;20399;-59
2023/04/22 05:58:53;0.00;0.00;0.62;0.00;0.00;0.62;7.20;6.50;;;23.30;21.60;;;;;;2264659;61;20383;-59
2023/04/22 06:01:41;0.00;0.00;0.62;0.00;0.00;0.62;7.50;6.80;;;23.30;21.10;;;;;;2265437;61;20362;-62
2023/04/22 06:04:26;0.00;0.00;0.62;0.00;0.00;0.62;7.27;6.57;;;23.30;21.20;;;;;;2268547;61;20806;-63
2023/04/22 06:07:13;0.00;0.00;0.62;0.00;0.00;0.62;5.90;5.37;;;23.30;21.10;;;;;;2268611;61;20367;-61
2023/04/22 06:09:57;0.00;0.00;0.62;0.00;0.00;0.62;8.23;6.37;;;23.30;21.20;;;;;;2268312;61;20387;-61
2023/04/22 06:12:42;0.00;0.00;0.62;0.00;0.00;0.62;9.90;6.67;;;23.30;21.20;;;;;;2268714;61;20795;-60
2023/04/22 06:15:27;0.00;0.00;0.62;0.00;0.00;0.62;6.83;6.20;;;23.30;21.20;;;;;;2265565;61;20367;-65
2023/04/22 06:18:12;0.00;0.00;0.62;0.00;0.00;0.62;6.77;6.07;;;23.20;21.10;;;;;;2265603;61;20447;-64
2023/04/22 06:20:57;0.00;0.00;0.62;0.00;0.00;0.62;9.20;6.80;;;23.20;21.20;;;;;;2264859;61;20393;-58
2023/04/22 06:23:43;0.00;0.00;0.62;0.00;0.00;0.62;5.70;5.10;;;23.20;21.30;;;;;;2268136;61;20413;-61
2023/04/22 06:26:28;0.00;0.00;0.62;0.00;0.00;0.62;7.07;6.03;;;23.20;21.40;;;;;;2268889;61;20367;-61
2023/04/22 06:29:14;0.00;0.00;0.62;0.00;0.00;0.62;7.30;6.57;;;23.20;21.50;;;;;;2267523;61;20386;-62
2023/04/22 06:32:00;0.00;0.00;0.62;0.00;0.00;0.62;6.03;5.40;;;23.20;21.50;;;;;;2269185;61;20887;-64
2023/04/22 06:34:45;0.00;0.00;0.62;0.00;0.00;0.62;6.07;5.47;;;23.20;21.50;;;;;;2268075;61;20404;-64
2023/04/22 06:37:31;0.00;0.00;0.62;0.00;0.00;0.62;7.10;5.53;;;23.10;21.50;;;;;;2268297;61;20395;-64
2023/04/22 06:40:17;0.00;0.00;0.62;0.00;0.00;0.62;7.03;5.97;;;23.10;21.60;;;;;;2267943;61;20391;-67
2023/04/22 06:43:30;0.00;0.00;0.62;0.00;0.00;0.62;7.00;6.30;;;23.10;21.60;;;;;;2267662;61;20425;-66
2023/04/22 06:46:45;0.00;0.00;0.62;0.00;0.00;0.62;6.27;5.70;;;23.10;21.70;;;;;;2246850;61;20917;-62
2023/04/22 06:49:49;0.00;0.00;0.62;0.00;0.00;0.62;5.70;4.97;;;23.10;21.60;;;;;;2249915;61;20425;-61
2023/04/22 06:53:00;0.00;0.00;0.62;0.00;0.00;0.62;5.87;5.27;;;23.10;21.70;;;;;;2266659;61;20837;-60
2023/04/22 06:55:47;0.00;0.00;0.62;0.00;0.00;0.62;4.90;4.50;;;23.10;21.80;;;;;;2267942;61;20993;-66
2023/04/22 06:58:32;0.00;0.00;0.62;0.00;0.00;0.62;5.50;5.00;;;23.00;21.80;;;;;;2268258;61;20395;-67
2023/04/22 07:01:18;0.00;0.00;0.62;0.00;0.00;0.62;4.90;4.37;;;23.00;21.90;;;;;;2269187;61;20409;-61
2023/04/22 07:04:04;0.00;0.00;0.62;0.00;0.00;0.62;5.47;4.60;;;23.00;21.90;;;;;;2267520;61;20375;-61
2023/04/22 07:06:49;0.00;0.00;0.62;0.00;0.00;0.62;4.27;3.87;;;23.10;22.00;;;;;;2267643;61;20360;-64
2023/04/22 07:09:35;0.00;0.00;0.62;0.00;0.00;0.62;4.80;4.00;;;23.10;22.00;;;;;;2497230;53;20387;-63
2023/04/22 07:12:24;0.00;0.00;0.62;0.00;0.00;0.62;4.93;4.47;;;23.10;22.00;;;;;;2264260;61;20875;-63
2023/04/22 07:15:10;0.00;0.00;0.62;0.00;0.00;0.62;4.80;4.40;;;23.20;22.00;;;;;;2263834;61;20360;-65
2023/04/22 07:17:55;0.00;0.00;0.62;0.00;0.00;0.62;3.97;3.57;;;23.20;22.00;;;;;;2264530;61;20387;-63
2023/04/22 07:20:40;0.00;0.00;0.62;0.00;0.00;0.62;4.40;4.00;;;23.30;22.00;;;;;;2263787;61;20396;-64
2023/04/22 07:23:25;0.00;0.00;0.62;0.00;0.00;0.62;4.50;3.40;;;23.30;21.90;;;;;;2264143;61;20471;-63
2023/04/22 07:26:10;0.00;0.00;0.62;0.00;0.00;0.62;4.70;4.00;;;23.40;22.00;;;;;;2264820;61;20363;-63
2023/04/22 07:28:56;0.00;0.00;0.62;0.00;0.00;0.62;4.00;3.70;;;23.40;21.90;;;;;;2266109;61;20394;-64
2023/04/22 07:31:42;0.00;0.00;0.62;0.00;0.00;0.62;4.37;3.97;;;23.40;21.90;;;;;;2267850;61;20451;-64
2023/04/22 07:34:27;0.00;0.00;0.62;0.00;0.00;0.62;4.70;4.30;;;23.50;22.50;;;;;;2267621;61;20405;-65
2023/04/22 07:37:12;0.00;0.00;0.62;0.00;0.00;0.62;5.40;4.90;;;23.50;21.90;;;;;;2267972;61;20486;-65
2023/04/22 07:39:56;0.00;0.00;0.62;0.00;0.00;0.62;4.63;4.23;;;23.60;21.90;;;;;;2267891;61;20945;-63
2023/04/22 07:42:41;0.00;0.00;0.62;0.00;0.00;0.62;4.70;4.10;;;23.60;21.90;;;;;;2264566;61;20405;-66
2023/04/22 07:45:27;0.00;0.00;0.62;0.00;0.00;0.62;4.37;3.77;;;23.60;21.90;;;;;;2267922;61;20394;-64
2023/04/22 07:48:12;0.00;0.00;0.62;0.00;0.00;0.62;4.83;4.33;;;23.70;21.90;;;;;;2264900;61;20374;-64
2023/04/22 07:50:56;0.00;0.00;0.62;0.00;0.00;0.62;5.40;4.60;;;23.70;21.80;;;;;;2267606;61;20414;-66
2023/04/22 07:53:41;0.00;0.00;0.62;0.00;0.00;0.62;5.17;4.67;;;23.80;21.90;;;;;;2264876;61;20891;-63
2023/04/22 07:56:26;0.00;0.00;0.62;0.00;0.00;0.62;5.20;4.40;;;23.80;21.80;;;;;;2268207;61;20362;-64
2023/04/22 07:59:11;0.00;0.00;0.62;0.00;0.00;0.62;4.83;4.33;;;23.80;21.70;;;;;;2267509;61;20595;-64
2023/04/22 08:01:57;0.00;0.00;0.62;0.00;0.00;0.62;5.03;4.00;;;23.90;21.80;;;;;;2268334;61;20378;-64
2023/04/22 08:04:41;0.00;0.00;0.62;0.00;0.00;0.62;4.40;4.00;;;23.90;21.70;;;;;;2267518;61;20789;-65
2023/04/22 08:07:27;0.00;0.00;0.62;0.00;0.00;0.62;5.03;4.40;;;23.90;21.60;;;;;;2268184;61;20390;-64
2023/04/22 08:10:12;0.00;0.00;0.62;0.00;0.00;0.62;4.93;4.43;;;24.00;21.60;;;;;;2267925;61;20413;-65
2023/04/22 08:12:56;0.00;0.00;0.62;0.00;0.00;0.62;5.60;4.77;;;24.00;21.60;;;;;;2268052;61;20367;-64
2023/04/22 08:15:41;0.00;0.00;0.62;0.00;0.00;0.62;4.77;4.27;;;24.00;21.60;;;;;;2267877;61;20409;-64
2023/04/22 08:18:27;0.00;0.00;0.62;0.00;0.00;0.62;4.47;3.83;;;24.00;21.60;;;;;;2267980;61;20387;-64
2023/04/22 08:21:11;0.00;0.00;0.62;0.00;0.00;0.62;4.33;3.93;;;24.10;21.60;;;;;;2267390;61;20440;-64
2023/04/22 08:23:56;0.00;0.00;0.62;0.00;0.00;0.62;5.40;4.23;;;24.10;21.60;;;;;;2268129;61;20795;-64
2023/04/22 08:26:41;0.00;0.00;0.62;0.00;0.00;0.62;5.13;4.40;;;24.10;21.60;;;;;;2268042;61;20359;-65
2023/04/22 08:29:25;0.00;0.00;0.62;0.00;0.00;0.62;4.30;3.90;;;24.20;21.70;;;;;;2267650;61;20424;-64
2023/04/22 08:32:10;0.00;0.00;0.62;0.00;0.00;0.62;5.30;4.80;;;24.20;21.70;;;;;;2268262;61;20446;-64
2023/04/22 08:34:56;0.00;0.00;0.62;0.00;0.00;0.62;6.10;4.93;;;24.20;21.70;;;;;;2267826;61;20410;-64
2023/04/22 08:37:41;0.00;0.00;0.62;0.00;0.00;0.62;4.77;4.30;;;24.20;21.70;;;;;;2264794;61;20381;-64
2023/04/22 08:40:26;0.00;0.00;0.62;0.00;0.00;0.62;5.10;4.60;;;24.20;21.70;;;;;;2267695;61;20502;-64
2023/04/22 08:43:11;0.00;0.00;0.62;0.00;0.00;0.62;5.87;4.53;;;24.20;21.70;;;;;;2267663;61;20405;-64
2023/04/22 08:45:56;0.00;0.00;0.62;0.00;0.00;0.62;5.03;4.43;;;24.30;21.80;;;;;;2268560;61;20358;-64
2023/04/22 08:48:41;0.00;0.00;0.62;0.00;0.00;0.62;4.80;4.30;;;24.30;21.80;;;;;;2268697;61;20387;-64
2023/04/22 08:51:27;0.00;0.00;0.62;0.00;0.00;0.62;4.37;3.97;;;24.40;21.80;;;;;;2268583;61;20485;-68
2023/04/22 08:54:12;0.00;0.00;0.62;0.00;0.00;0.62;4.23;3.83;;;24.40;21.80;;;;;;2268460;61;20809;-64
2023/04/22 08:56:58;0.00;0.00;0.62;0.00;0.00;0.62;4.43;4.00;;;24.40;21.80;;;;;;2268359;61;20835;-67
2023/04/22 08:59:44;0.00;0.00;0.62;0.00;0.00;0.62;5.60;4.97;;;24.40;21.80;;;;;;2267985;61;20505;-65
2023/04/22 09:02:31;0.00;0.00;0.62;0.00;0.00;0.62;4.53;4.13;;;24.40;21.80;;;;;;2268652;61;20423;-65
2023/04/22 09:05:19;0.00;0.00;0.62;0.00;0.00;0.62;5.30;4.07;;;24.50;21.90;;;;;;2267954;61;20449;-65
2023/04/22 09:08:06;0.00;0.00;0.62;0.00;0.00;0.62;5.60;4.77;;;24.40;21.90;;;;;;2268692;61;20956;-65
2023/04/22 09:10:51;0.00;0.00;0.62;0.00;0.00;0.62;5.23;4.60;;;24.50;21.90;;;;;;2268371;61;20510;-64
2023/04/22 09:13:37;0.00;0.00;0.62;0.00;0.00;0.62;5.57;4.87;;;24.60;22.00;;;;;;2265043;61;20638;-68
2023/04/22 09:16:21;0.00;0.00;0.62;0.00;0.00;0.62;5.50;4.90;;;24.50;21.90;;;;;;2265402;61;20378;-64
2023/04/22 09:19:10;0.00;0.00;0.62;0.00;0.00;0.62;4.77;4.37;;;24.60;22.00;;;;;;2268056;61;20475;-67
2023/04/22 09:21:58;0.00;0.00;0.62;0.00;0.00;0.62;4.67;4.27;;;24.60;22.00;;;;;;2268129;61;20390;-67
2023/04/22 09:24:49;0.00;0.00;0.62;0.00;0.00;0.62;5.03;4.53;;;24.60;22.00;;;;;;2268366;61;20927;-65
2023/04/22 09:27:35;0.00;0.00;0.62;0.00;0.00;0.62;4.93;4.43;;;24.70;22.00;;;;;;2268059;61;20448;-67
2023/04/22 09:30:23;0.00;0.00;0.62;0.00;0.00;0.62;4.73;4.03;;;24.70;22.00;;;;;;2268246;61;20383;-65
2023/04/22 09:33:08;0.00;0.00;0.62;0.00;0.00;0.62;4.70;3.93;;;24.70;22.00;;;;;;2268458;61;20564;-65
2023/04/22 09:35:54;0.00;0.00;0.62;0.00;0.00;0.62;4.07;3.50;;;24.70;22.00;;;;;;2265047;61;20402;-64
2023/04/22 09:38:39;0.00;0.00;0.62;0.00;0.00;0.62;4.40;4.00;;;24.70;22.00;;;;;;2268122;61;20433;-66
2023/04/22 09:41:30;0.00;0.00;0.62;0.00;0.00;0.62;3.70;3.30;;;24.80;22.00;;;;;;2268536;61;20477;-64
2023/04/22 09:44:19;0.00;0.00;0.62;0.00;0.00;0.62;4.20;3.83;;;24.80;22.10;;;;;;2268139;61;20805;-65
2023/04/22 09:47:04;0.00;0.00;0.62;0.00;0.00;0.62;3.83;3.33;;;24.80;22.00;;;;;;2268246;61;20879;-65
2023/04/22 09:49:49;0.00;0.00;0.62;0.00;0.00;0.62;4.17;3.77;;;24.80;22.00;;;;;;2267495;61;20962;-65
2023/04/22 09:52:34;0.00;0.00;0.62;0.00;0.00;0.62;4.30;3.90;;;24.80;22.00;;;;;;2265334;61;20711;-65
2023/04/22 09:55:21;0.00;0.00;0.62;0.00;0.00;0.62;3.80;3.40;;;24.90;22.00;;;;;;2268361;61;20347;-65
2023/04/22 09:58:09;0.00;0.00;0.62;0.00;0.00;0.62;3.93;3.33;;;24.90;22.00;;;;;;2268009;61;20363;-65
2023/04/22 10:00:57;0.00;0.00;0.62;0.00;0.00;0.62;3.70;3.40;;;24.90;22.00;;;;;;2268195;61;20386;-65
2023/04/22 10:03:42;0.00;0.00;0.62;0.00;0.00;0.62;3.60;3.07;;;25.00;22.10;;;;;;2268117;61;20437;-65
2023/04/22 10:06:27;0.00;0.00;0.62;0.00;0.00;0.62;3.83;3.53;;;25.00;22.00;;;;;;2268274;61;20355;-64
2023/04/22 10:09:12;0.00;0.00;0.62;0.00;0.00;0.62;3.90;3.53;;;25.00;22.00;;;;;;2268500;61;20829;-64
2023/04/22 10:11:57;0.00;0.00;0.62;0.00;0.00;0.62;3.37;3.07;;;25.00;22.00;;;;;;2267837;61;20568;-65
2023/04/22 10:14:44;0.00;0.00;0.62;0.00;0.00;0.62;3.30;3.00;;;25.10;22.10;;;;;;2268301;61;20363;-64
2023/04/22 10:17:32;0.00;0.00;0.62;0.00;0.00;0.62;3.43;3.13;;;25.10;22.10;;;;;;2268344;61;20416;-67
2023/04/22 10:20:17;0.00;0.00;0.62;0.00;0.00;0.62;4.03;3.63;;;25.10;22.10;;;;;;2267038;61;20379;-68
2023/04/22 10:23:04;0.00;0.00;0.62;0.00;0.00;0.62;4.10;3.63;;;25.10;22.00;;;;;;2268304;61;20382;-65
2023/04/22 10:25:52;0.00;0.00;0.62;0.00;0.00;0.62;3.60;2.90;;;25.10;22.00;;;;;;2268116;61;20682;-64
2023/04/22 10:28:43;0.00;0.00;0.62;0.00;0.00;0.62;3.37;3.07;;;25.10;22.00;;;;;;2265053;61;20374;-66
2023/04/22 10:31:29;0.00;0.00;0.62;0.00;0.00;0.62;3.20;2.80;;;25.20;22.10;;;;;;2268341;61;20360;-65
2023/04/22 10:34:14;0.00;0.00;0.62;0.00;0.00;0.62;3.33;3.03;;;25.20;22.10;;;;;;2267920;61;20814;-65
2023/04/22 10:37:04;0.00;0.00;0.62;0.00;0.00;0.62;3.27;2.97;;;25.20;22.10;;;;;;2268102;61;20391;-68
2023/04/22 10:40:10;0.00;0.00;0.62;0.00;0.00;0.62;3.73;3.43;;;25.30;22.10;;;;;;2267879;61;20522;-64
2023/04/22 10:43:02;0.00;0.00;0.62;0.00;0.00;0.62;3.30;2.93;;;25.30;22.10;;;;;;2268231;61;20441;-64
2023/04/22 10:45:46;0.00;0.00;0.62;0.00;0.00;0.62;3.10;2.80;;;25.30;22.10;;;;;;2268294;61;20387;-64
2023/04/22 10:48:50;0.00;0.00;0.62;0.00;0.00;0.62;3.30;3.00;;;25.30;22.10;;;;;;2268347;61;20382;-69
2023/04/22 10:51:39;0.00;0.00;0.62;0.00;0.00;0.62;3.50;2.70;;;25.40;22.20;;;;;;2268085;61;20781;-65
2023/04/22 10:54:59;0.00;0.00;0.62;0.00;0.00;0.62;3.03;2.63;;;25.40;22.20;;;;;;2268188;61;20351;-69
2023/04/22 10:57:46;0.00;0.00;0.62;0.00;0.00;0.62;3.43;2.83;;;25.40;22.20;;;;;;2267991;61;20611;-64